Time;durP1;ratioP1;P1;durP2;ratioP2;P2;SDS_P1;SDS_P2;PMS_P1;PMS_P2;Temp;Humidity;BMP_temperature;BMP_pressure;BME280_temperature;BME280_humidity;BME280_pressure;Samples;Min_cycle;Max_cycle;Signal;HPM_P1;HPM_P2
2021/05/04 00:01:36;;;;;;;18.10;16.80;;;7.20;99.90;;;;;;5010593;28;20488;-68
2021/05/04 00:04:03;;;;;;;16.87;15.77;;;7.20;99.90;;;;;;5011320;28;20453;-67
2021/05/04 00:06:29;;;;;;;19.07;17.60;;;7.20;99.90;;;;;;5010598;28;20448;-67
2021/05/04 00:08:56;;;;;;;19.23;17.60;;;7.20;99.90;;;;;;5011017;28;20461;-67
2021/05/04 00:11:22;;;;;;;19.00;17.33;;;7.10;99.90;;;;;;5010926;28;20448;-67
2021/05/04 00:13:50;;;;;;;18.13;16.83;;;7.10;99.90;;;;;;5010770;28;20446;-67
2021/05/04 00:16:16;;;;;;;18.77;17.17;;;7.10;99.90;;;;;;5010482;28;20449;-67
2021/05/04 00:18:42;;;;;;;17.90;16.40;;;7.10;99.90;;;;;;5010640;28;20446;-67
2021/05/04 00:21:09;;;;;;;18.47;16.70;;;7.10;99.90;;;;;;5009773;28;20495;-67
2021/05/04 00:23:35;;;;;;;18.20;16.60;;;7.10;99.90;;;;;;5010832;28;20513;-67
2021/05/04 00:26:01;;;;;;;17.60;16.40;;;7.10;99.90;;;;;;5011929;28;20455;-68
2021/05/04 00:28:27;;;;;;;17.23;15.83;;;7.00;99.90;;;;;;5014351;28;20449;-67
2021/05/04 00:30:54;;;;;;;18.07;16.60;;;7.00;99.90;;;;;;5014379;28;20457;-67
2021/05/04 00:33:21;;;;;;;18.90;17.30;;;7.00;99.90;;;;;;5014473;28;20808;-68
2021/05/04 00:35:47;;;;;;;18.10;16.47;;;7.10;99.90;;;;;;5014343;28;20445;-66
2021/05/04 00:38:14;;;;;;;19.30;17.90;;;7.10;99.90;;;;;;5014313;28;20508;-67
2021/05/04 00:40:40;;;;;;;19.40;17.73;;;7.10;99.90;;;;;;5014228;28;20483;-67
2021/05/04 00:43:06;;;;;;;19.43;17.73;;;7.00;99.90;;;;;;5013974;28;20453;-67
2021/05/04 00:45:32;;;;;;;25.03;22.70;;;7.00;99.90;;;;;;5014284;28;20954;-68
2021/05/04 00:48:00;;;;;;;30.33;27.57;;;7.00;99.90;;;;;;5014282;28;20445;-67
2021/05/04 00:50:26;;;;;;;30.70;25.97;;;7.00;99.90;;;;;;5014263;28;20449;-67
2021/05/04 00:52:52;;;;;;;28.87;26.20;;;7.00;99.90;;;;;;5013913;28;20454;-68
2021/05/04 00:55:19;;;;;;;28.27;25.87;;;6.90;99.90;;;;;;5014299;28;20463;-67
2021/05/04 00:57:46;;;;;;;28.07;25.60;;;6.90;99.90;;;;;;5014142;28;20557;-67
2021/05/04 01:00:14;;;;;;;23.27;21.17;;;6.80;99.90;;;;;;5014046;28;20510;-67
2021/05/04 01:02:40;;;;;;;19.90;18.50;;;6.80;99.90;;;;;;5013931;28;20465;-67
2021/05/04 01:05:09;;;;;;;21.93;19.83;;;6.70;99.90;;;;;;5013713;28;20450;-68
2021/05/04 01:07:36;;;;;;;20.23;18.70;;;6.70;99.90;;;;;;5014105;28;20468;-68
2021/05/04 01:10:03;;;;;;;21.80;19.80;;;6.70;99.90;;;;;;5013947;28;20968;-69
2021/05/04 01:12:29;;;;;;;20.43;18.53;;;6.60;99.90;;;;;;5013602;28;20463;-67
2021/05/04 01:14:56;;;;;;;21.17;19.23;;;6.60;99.90;;;;;;5013800;28;20893;-67
2021/05/04 01:17:22;;;;;;;22.30;20.10;;;6.60;99.90;;;;;;5013629;28;20878;-68
2021/05/04 01:19:49;;;;;;;21.80;20.10;;;6.60;99.90;;;;;;5013301;28;20477;-67
2021/05/04 01:22:16;;;;;;;20.63;18.93;;;6.60;99.90;;;;;;5013453;28;20494;-67
2021/05/04 01:24:42;;;;;;;24.33;21.87;;;6.60;99.90;;;;;;5013588;28;20464;-67
2021/05/04 01:27:08;;;;;;;23.27;21.37;;;6.60;99.90;;;;;;5013605;28;20519;-68
2021/05/04 01:29:35;;;;;;;23.90;22.00;;;6.60;99.90;;;;;;5013597;28;20477;-67
2021/05/04 01:32:01;;;;;;;25.10;23.20;;;6.50;99.90;;;;;;5013202;28;20818;-66
2021/05/04 01:34:27;;;;;;;24.83;22.60;;;6.50;99.90;;;;;;5013185;28;20458;-65
2021/05/04 01:36:53;;;;;;;19.97;18.50;;;6.40;99.90;;;;;;5012979;28;20457;-66
2021/05/04 01:39:28;;;;;;;23.70;21.73;;;6.40;99.90;;;;;;5012941;28;20457;-65
2021/05/04 01:41:54;;;;;;;24.27;22.37;;;6.40;99.90;;;;;;5013252;28;20556;-68
2021/05/04 01:44:20;;;;;;;21.97;20.27;;;6.40;99.90;;;;;;5013239;28;20527;-68
2021/05/04 01:46:46;;;;;;;23.20;21.40;;;6.40;99.90;;;;;;5012912;28;20456;-66
2021/05/04 01:49:13;;;;;;;22.43;20.63;;;6.50;99.90;;;;;;5013124;28;20484;-66
2021/05/04 01:51:39;;;;;;;23.43;21.53;;;6.50;99.90;;;;;;5013078;28;20446;-66
2021/05/04 01:54:06;;;;;;;22.90;21.07;;;6.50;99.90;;;;;;5012970;28;20513;-66
2021/05/04 01:56:33;;;;;;;22.30;20.50;;;6.60;99.90;;;;;;5012754;28;20458;-66
2021/05/04 01:59:03;;;;;;;19.57;17.87;;;6.50;99.90;;;;;;5012672;28;20454;-67
2021/05/04 02:01:29;;;;;;;21.40;19.60;;;6.40;99.90;;;;;;5013088;28;20541;-66
2021/05/04 02:03:56;;;;;;;21.00;19.13;;;6.40;99.90;;;;;;5012748;28;20529;-67
2021/05/04 02:06:22;;;;;;;21.57;20.03;;;6.30;99.90;;;;;;5012733;28;20450;-67
2021/05/04 02:08:49;;;;;;;20.73;19.03;;;6.30;99.90;;;;;;5012576;28;20511;-66
2021/05/04 02:11:15;;;;;;;22.47;20.50;;;6.20;99.90;;;;;;5012439;28;20450;-66
2021/05/04 02:13:43;;;;;;;21.13;19.37;;;6.20;99.90;;;;;;5012455;28;20463;-66
2021/05/04 02:16:09;;;;;;;20.07;18.33;;;6.10;99.90;;;;;;5012446;28;20462;-66
2021/05/04 02:18:35;;;;;;;19.33;17.93;;;6.10;99.90;;;;;;5012231;28;20455;-66
2021/05/04 02:21:01;;;;;;;19.60;17.87;;;6.10;99.90;;;;;;5012271;28;20492;-66
2021/05/04 02:23:27;;;;;;;19.73;18.10;;;6.00;99.90;;;;;;5011920;28;20449;-67
2021/05/04 02:25:54;;;;;;;21.83;20.23;;;6.10;99.90;;;;;;5012391;28;20811;-67
2021/05/04 02:28:20;;;;;;;21.00;19.10;;;6.10;99.90;;;;;;5012407;28;20469;-67
2021/05/04 02:30:47;;;;;;;21.43;19.53;;;6.20;99.90;;;;;;5012276;28;20450;-67
2021/05/04 02:33:13;;;;;;;20.87;19.13;;;6.20;99.90;;;;;;5012309;28;20472;-66
2021/05/04 02:35:39;;;;;;;20.70;18.90;;;6.20;99.90;;;;;;5011960;28;20479;-67
2021/05/04 02:38:05;;;;;;;23.53;21.33;;;6.30;99.90;;;;;;5011929;28;20835;-67
2021/05/04 02:40:32;;;;;;;23.90;21.40;;;6.30;99.90;;;;;;5012255;28;20477;-67
2021/05/04 02:42:58;;;;;;;20.17;18.27;;;6.30;99.90;;;;;;5011921;28;20480;-66
2021/05/04 02:45:24;;;;;;;21.00;18.97;;;6.30;99.90;;;;;;5011741;28;20453;-67
2021/05/04 02:47:51;;;;;;;20.57;18.67;;;6.40;99.90;;;;;;5012147;28;20487;-67
2021/05/04 02:50:17;;;;;;;21.53;19.50;;;6.30;99.90;;;;;;5010935;28;20978;-67
2021/05/04 02:52:43;;;;;;;20.60;18.83;;;6.40;99.90;;;;;;5011968;28;20466;-67
2021/05/04 02:55:10;;;;;;;20.10;18.53;;;6.30;99.90;;;;;;5011575;28;20463;-67
2021/05/04 02:57:36;;;;;;;20.53;18.70;;;6.30;99.90;;;;;;5011781;28;20519;-67
2021/05/04 03:00:03;;;;;;;23.70;19.00;;;6.20;99.90;;;;;;5011735;28;20474;-67
2021/05/04 03:02:30;;;;;;;18.40;16.93;;;6.20;99.90;;;;;;5011707;28;20458;-67
2021/05/04 03:04:57;;;;;;;17.87;16.57;;;6.20;99.90;;;;;;5011186;28;20961;-67
2021/05/04 03:07:23;;;;;;;21.33;19.43;;;6.10;99.90;;;;;;5011465;28;20497;-68
2021/05/04 03:09:49;;;;;;;20.13;18.60;;;6.10;99.90;;;;;;5011734;28;20451;-68
2021/05/04 03:12:15;;;;;;;20.97;19.47;;;6.10;99.90;;;;;;5011501;28;20474;-67
2021/05/04 03:14:41;;;;;;;21.60;19.57;;;6.10;99.90;;;;;;5011432;28;20450;-68
2021/05/04 03:17:07;;;;;;;20.73;18.90;;;6.10;99.90;;;;;;5010943;28;20456;-67
2021/05/04 03:19:34;;;;;;;20.20;18.53;;;6.10;99.90;;;;;;5011443;28;20446;-68
2021/05/04 03:22:01;;;;;;;20.30;18.60;;;6.10;99.90;;;;;;5011361;28;20490;-68
2021/05/04 03:24:27;;;;;;;19.77;18.30;;;6.20;99.90;;;;;;5011407;28;20525;-67
2021/05/04 03:26:53;;;;;;;19.50;17.80;;;6.20;99.90;;;;;;5011234;28;20442;-67
2021/05/04 03:29:19;;;;;;;18.73;17.33;;;6.20;99.90;;;;;;5011118;28;20859;-68
2021/05/04 03:31:45;;;;;;;17.47;16.13;;;6.30;99.90;;;;;;5011238;28;20458;-67
2021/05/04 03:34:12;;;;;;;18.67;17.33;;;6.30;99.90;;;;;;5010983;28;20965;-67
2021/05/04 03:36:38;;;;;;;16.90;15.70;;;6.30;99.90;;;;;;5011033;28;20450;-67
2021/05/04 03:39:05;;;;;;;18.43;17.03;;;6.40;99.90;;;;;;5011129;28;20458;-68
2021/05/04 03:41:32;;;;;;;18.93;17.53;;;6.40;99.90;;;;;;5010934;28;20536;-68
2021/05/04 03:43:58;;;;;;;19.13;17.60;;;6.40;99.90;;;;;;5010793;28;20955;-67
2021/05/04 03:46:24;;;;;;;21.93;20.30;;;6.50;99.90;;;;;;5010875;28;20459;-70
2021/05/04 03:48:50;;;;;;;18.63;17.37;;;6.50;99.90;;;;;;5010748;28;20457;-69
2021/05/04 03:51:16;;;;;;;20.00;18.50;;;6.40;99.90;;;;;;5011138;28;20801;-69
2021/05/04 03:53:42;;;;;;;19.93;18.30;;;6.40;99.90;;;;;;5010761;28;20460;-67
2021/05/04 03:56:09;;;;;;;19.87;18.10;;;6.40;99.90;;;;;;5010604;28;20456;-70
2021/05/04 03:58:36;;;;;;;22.73;18.80;;;6.40;99.90;;;;;;5010416;28;20455;-66
2021/05/04 04:01:02;;;;;;;17.07;15.77;;;6.40;99.90;;;;;;5010001;28;20893;-66
2021/05/04 04:03:28;;;;;;;18.03;16.53;;;6.40;99.90;;;;;;5010499;28;20451;-67
2021/05/04 04:05:56;;;;;;;18.60;17.40;;;6.40;99.90;;;;;;5010547;28;20447;-66
2021/05/04 04:08:22;;;;;;;18.27;16.87;;;6.40;99.90;;;;;;5010696;28;20483;-67
2021/05/04 04:10:48;;;;;;;18.53;17.33;;;6.50;99.90;;;;;;5010203;28;20461;-68
2021/05/04 04:13:16;;;;;;;16.83;15.63;;;6.50;99.90;;;;;;5002010;28;20449;-66
2021/05/04 04:15:42;;;;;;;19.30;17.80;;;6.50;99.90;;;;;;5010600;28;20446;-67
2021/05/04 04:18:09;;;;;;;16.77;15.47;;;6.70;99.90;;;;;;5010324;28;20456;-67
2021/05/04 04:20:35;;;;;;;19.30;17.90;;;6.70;99.90;;;;;;5010196;28;20984;-67
2021/05/04 04:23:01;;;;;;;18.23;16.93;;;6.70;99.90;;;;;;5009949;28;20479;-66
2021/05/04 04:25:27;;;;;;;17.80;16.50;;;6.60;99.90;;;;;;5010038;28;20446;-66
2021/05/04 04:27:53;;;;;;;17.50;16.10;;;6.60;99.90;;;;;;5010474;28;20462;-67
2021/05/04 04:30:23;;;;;;;18.50;17.10;;;6.60;99.90;;;;;;5010469;28;20462;-66
2021/05/04 04:32:50;;;;;;;21.13;19.33;;;6.60;99.90;;;;;;5010399;28;20471;-66
2021/05/04 04:35:16;;;;;;;21.13;19.53;;;6.60;99.90;;;;;;5010443;28;20955;-66
2021/05/04 04:37:43;;;;;;;18.57;17.03;;;6.70;99.90;;;;;;5010182;28;20451;-67
2021/05/04 04:40:11;;;;;;;20.17;18.57;;;6.80;99.90;;;;;;5009935;28;20513;-67
2021/05/04 04:42:38;;;;;;;18.43;17.23;;;6.80;99.90;;;;;;5010135;28;20444;-67
2021/05/04 04:45:05;;;;;;;21.50;19.70;;;6.90;99.90;;;;;;5010521;28;20460;-67
2021/05/04 04:47:32;;;;;;;19.40;17.70;;;6.90;99.90;;;;;;5010396;28;20996;-67
2021/05/04 04:49:58;;;;;;;18.67;17.27;;;7.00;99.90;;;;;;5010242;28;20457;-66
2021/05/04 04:52:25;;;;;;;16.37;15.13;;;7.20;99.90;;;;;;5010147;28;20940;-66
2021/05/04 04:54:53;;;;;;;16.93;15.60;;;7.30;99.90;;;;;;5009852;28;20453;-68
2021/05/04 04:57:19;;;;;;;18.33;17.03;;;7.40;99.90;;;;;;5010292;28;20806;-68
2021/05/04 04:59:46;;;;;;;16.77;15.47;;;7.50;99.90;;;;;;5010285;28;20812;-68
2021/05/04 05:02:12;;;;;;;17.13;15.90;;;7.60;99.90;;;;;;5009792;28;20494;-68
2021/05/04 05:04:39;;;;;;;17.03;15.60;;;7.70;99.90;;;;;;5010103;28;20858;-67
2021/05/04 05:07:08;;;;;;;17.83;16.63;;;7.80;99.90;;;;;;5010508;28;20453;-68
2021/05/04 05:09:35;;;;;;;18.23;16.73;;;7.90;99.90;;;;;;5010409;28;20805;-68
2021/05/04 05:12:02;;;;;;;19.30;17.60;;;8.00;99.90;;;;;;5010088;28;20457;-68
2021/05/04 05:14:29;;;;;;;20.90;18.77;;;8.10;99.90;;;;;;5013261;28;20458;-68
2021/05/04 05:16:55;;;;;;;18.07;16.20;;;8.10;99.90;;;;;;5013421;28;20888;-68
2021/05/04 05:19:21;;;;;;;19.50;17.77;;;8.20;99.90;;;;;;5013395;28;20944;-68
2021/05/04 05:21:48;;;;;;;18.10;16.50;;;8.20;99.90;;;;;;5013491;28;20499;-68
2021/05/04 05:24:14;;;;;;;16.73;15.43;;;8.30;99.90;;;;;;5013867;28;20454;-68
2021/05/04 05:26:41;;;;;;;17.00;15.60;;;8.40;99.90;;;;;;5013050;28;20825;-69
2021/05/04 05:29:07;;;;;;;17.23;16.17;;;8.50;99.90;;;;;;5013575;28;20493;-68
2021/05/04 05:31:36;;;;;;;20.50;18.60;;;8.50;99.90;;;;;;5013510;28;20492;-68
2021/05/04 05:34:02;;;;;;;18.53;17.10;;;8.50;99.90;;;;;;5013379;28;21009;-68
2021/05/04 05:36:29;;;;;;;18.13;16.40;;;8.50;99.90;;;;;;5012991;28;20818;-68
2021/05/04 05:38:56;;;;;;;19.53;17.13;;;8.50;99.90;;;;;;5013231;28;20836;-68
2021/05/04 05:41:22;;;;;;;18.13;16.63;;;8.40;99.90;;;;;;5012793;28;20490;-68
2021/05/04 05:43:48;;;;;;;18.50;16.80;;;8.30;99.90;;;;;;5013085;28;20454;-68
2021/05/04 05:46:15;;;;;;;18.83;17.20;;;8.40;99.90;;;;;;5013081;28;20454;-68
2021/05/04 05:48:41;;;;;;;18.70;17.00;;;8.50;99.90;;;;;;5013136;28;20462;-67
2021/05/04 05:51:08;;;;;;;20.93;16.97;;;8.50;99.90;;;;;;5012976;28;20458;-68
2021/05/04 05:53:34;;;;;;;18.13;16.57;;;8.60;99.90;;;;;;5013069;28;20493;-68
2021/05/04 05:56:01;;;;;;;23.70;17.20;;;8.70;99.90;;;;;;5012790;28;20523;-68
2021/05/04 05:58:27;;;;;;;19.17;17.57;;;8.80;99.90;;;;;;5012848;28;20496;-68
2021/05/04 06:00:56;;;;;;;18.97;17.27;;;8.90;99.90;;;;;;5012528;28;20999;-67
2021/05/04 06:03:22;;;;;;;18.00;16.60;;;8.90;99.90;;;;;;5012575;28;20453;-68
2021/05/04 06:05:49;;;;;;;19.97;18.00;;;8.90;99.90;;;;;;5012989;28;20454;-68
2021/05/04 06:08:15;;;;;;;16.97;15.67;;;9.00;99.90;;;;;;5012709;28;20836;-69
2021/05/04 06:10:41;;;;;;;18.37;16.73;;;9.00;99.90;;;;;;5012533;28;20972;-68
2021/05/04 06:13:08;;;;;;;19.63;17.70;;;9.00;99.90;;;;;;5012613;28;20450;-69
2021/05/04 06:15:36;;;;;;;19.93;17.93;;;9.20;99.90;;;;;;5012832;28;20453;-69
2021/05/04 06:18:03;;;;;;;15.67;14.53;;;9.40;99.90;;;;;;5012613;28;20454;-68
2021/05/04 06:20:29;;;;;;;17.50;15.93;;;9.50;99.90;;;;;;5012330;28;20473;-68
2021/05/04 06:22:55;;;;;;;17.23;15.70;;;9.70;99.90;;;;;;5012016;28;20919;-68
2021/05/04 06:25:21;;;;;;;17.23;16.03;;;9.80;99.90;;;;;;5012124;28;20453;-68
2021/05/04 06:27:48;;;;;;;15.10;14.20;;;10.00;99.90;;;;;;5012409;28;20450;-68
2021/05/04 06:30:16;;;;;;;13.97;12.63;;;10.30;99.90;;;;;;5012505;28;20845;-68
2021/05/04 06:32:43;;;;;;;13.33;12.10;;;10.70;99.90;;;;;;5012029;28;20457;-68
2021/05/04 06:35:13;;;;;;;15.07;14.07;;;11.00;99.90;;;;;;5011762;28;20457;-67
2021/05/04 06:37:39;;;;;;;15.70;14.17;;;11.30;99.90;;;;;;5011832;28;20470;-68
2021/05/04 06:40:08;;;;;;;14.70;13.20;;;11.60;99.20;;;;;;5010482;28;20456;-68
2021/05/04 06:42:34;;;;;;;14.07;13.17;;;11.80;98.70;;;;;;5011879;28;20460;-68
2021/05/04 06:45:00;;;;;;;12.73;11.53;;;12.00;98.10;;;;;;5011797;28;20942;-67
2021/05/04 06:47:27;;;;;;;11.77;11.07;;;12.20;96.80;;;;;;5011936;28;20485;-68
2021/05/04 06:49:54;;;;;;;11.33;10.63;;;12.50;96.40;;;;;;5011910;28;20453;-67
2021/05/04 06:52:20;;;;;;;12.00;11.20;;;12.60;95.90;;;;;;5012042;28;20469;-68
2021/05/04 06:54:46;;;;;;;13.30;12.50;;;12.90;95.60;;;;;;5011895;28;20454;-68
2021/05/04 06:57:12;;;;;;;13.17;11.90;;;13.10;94.90;;;;;;5011813;28;20454;-69
2021/05/04 06:59:38;;;;;;;12.50;11.50;;;13.10;94.50;;;;;;5011708;28;20457;-68
2021/05/04 07:02:05;;;;;;;13.03;12.33;;;13.20;93.90;;;;;;5011455;28;20995;-68
2021/05/04 07:04:32;;;;;;;11.43;10.73;;;13.40;93.10;;;;;;5011634;28;20442;-68
2021/05/04 07:06:58;;;;;;;12.40;11.50;;;13.60;92.70;;;;;;5011545;28;20460;-67
2021/05/04 07:09:24;;;;;;;11.87;11.07;;;13.80;92.30;;;;;;5011112;28;20999;-67
2021/05/04 07:11:51;;;;;;;12.13;11.53;;;14.00;92.10;;;;;;5011319;28;20454;-68
2021/05/04 07:14:18;;;;;;;13.17;12.00;;;14.20;91.00;;;;;;5011557;28;20464;-68
2021/05/04 07:16:45;;;;;;;11.00;10.47;;;14.30;91.10;;;;;;5011234;28;20450;-68
2021/05/04 07:19:11;;;;;;;11.57;10.77;;;14.50;90.20;;;;;;5011296;28;21329;-68
2021/05/04 07:21:38;;;;;;;11.47;10.87;;;14.60;89.80;;;;;;5010898;28;20897;-68
2021/05/04 07:24:05;;;;;;;12.77;11.67;;;14.80;87.60;;;;;;5011209;28;20430;-68
2021/05/04 07:26:32;;;;;;;11.83;10.87;;;15.10;87.20;;;;;;5011326;28;20515;-68
2021/05/04 07:28:58;;;;;;;11.27;10.57;;;15.30;86.00;;;;;;5010949;28;20532;-68
2021/05/04 07:31:25;;;;;;;11.80;11.20;;;15.40;85.50;;;;;;5011069;28;20461;-69
2021/05/04 07:33:52;;;;;;;10.40;9.80;;;15.50;83.30;;;;;;5010905;28;20473;-68
2021/05/04 07:36:18;;;;;;;10.13;9.63;;;15.80;81.20;;;;;;5010815;28;20446;-69
2021/05/04 07:38:45;;;;;;;13.23;12.27;;;15.80;80.90;;;;;;5011036;28;20461;-68
2021/05/04 07:41:11;;;;;;;11.80;11.30;;;15.90;81.00;;;;;;5010672;28;20606;-68
2021/05/04 07:43:37;;;;;;;11.60;10.83;;;16.10;80.00;;;;;;5010772;28;20454;-68
2021/05/04 07:46:04;;;;;;;11.90;11.30;;;16.30;79.80;;;;;;5011071;28;20460;-68
2021/05/04 07:48:30;;;;;;;11.77;11.27;;;16.90;79.30;;;;;;5010793;28;20453;-68
2021/05/04 07:50:56;;;;;;;11.20;10.67;;;17.50;74.80;;;;;;5010709;28;21182;-67
2021/05/04 07:53:23;;;;;;;11.00;10.50;;;17.50;73.10;;;;;;5010189;28;20442;-69
2021/05/04 07:55:50;;;;;;;10.83;10.33;;;18.00;72.20;;;;;;5010063;28;20441;-68
2021/05/04 07:58:16;;;;;;;10.73;10.07;;;18.50;70.10;;;;;;4999952;28;20438;-70
2021/05/04 08:00:42;;;;;;;10.90;10.50;;;18.20;69.50;;;;;;5000075;28;20492;-70
2021/05/04 08:03:08;;;;;;;11.97;11.50;;;18.40;68.60;;;;;;5010365;28;20442;-70
2021/05/04 08:05:35;;;;;;;10.73;10.37;;;18.60;67.30;;;;;;4995808;28;20791;-71
2021/05/04 08:08:01;;;;;;;12.00;11.50;;;18.90;67.50;;;;;;4991273;28;20457;-73
2021/05/04 08:10:27;;;;;;;11.87;11.17;;;19.00;65.30;;;;;;5010555;28;20460;-70
2021/05/04 08:12:54;;;;;;;12.40;11.37;;;18.80;64.40;;;;;;5010697;28;20461;-71
2021/05/04 08:15:22;;;;;;;11.20;10.43;;;18.70;64.70;;;;;;5010539;28;20501;-71
2021/05/04 08:17:54;;;;;;;10.07;9.60;;;18.30;63.60;;;;;;5000441;28;20455;-70
2021/05/04 08:20:21;;;;;;;10.87;10.37;;;18.50;64.60;;;;;;4991039;28;20507;-71
2021/05/04 08:22:47;;;;;;;11.67;11.13;;;18.30;63.70;;;;;;4990809;28;20577;-71
2021/05/04 08:25:13;;;;;;;10.20;9.90;;;18.30;64.00;;;;;;4990807;28;21128;-70
2021/05/04 08:27:40;;;;;;;11.60;11.20;;;18.50;62.90;;;;;;4990554;28;20467;-70
2021/05/04 08:30:08;;;;;;;11.13;10.53;;;18.70;62.60;;;;;;4991152;28;20458;-70
2021/05/04 08:32:34;;;;;;;11.40;10.70;;;18.80;62.10;;;;;;4990868;28;20482;-70
2021/05/04 08:35:00;;;;;;;12.03;11.30;;;18.90;61.60;;;;;;5002879;28;20457;-70
2021/05/04 08:37:27;;;;;;;11.10;10.63;;;18.80;61.50;;;;;;5010329;28;20442;-70
2021/05/04 08:39:53;;;;;;;11.30;10.87;;;19.00;62.30;;;;;;5010594;28;20460;-70
2021/05/04 08:42:19;;;;;;;11.47;10.97;;;19.50;60.40;;;;;;5010057;28;21022;-71
2021/05/04 08:44:50;;;;;;;10.33;9.73;;;20.00;59.60;;;;;;5010565;28;20446;-71
2021/05/04 08:47:19;;;;;;;11.70;11.20;;;20.90;58.90;;;;;;5010722;28;20457;-72
2021/05/04 08:49:46;;;;;;;12.03;11.63;;;21.60;56.80;;;;;;5014507;28;20453;-71
2021/05/04 08:52:13;;;;;;;13.00;12.40;;;22.70;54.40;;;;;;5014151;28;20478;-71
2021/05/04 08:54:39;;;;;;;11.90;11.10;;;21.80;53.60;;;;;;5014167;28;20932;-70
2021/05/04 08:57:05;;;;;;;14.77;12.27;;;21.70;54.30;;;;;;5014003;28;20468;-70
2021/05/04 08:59:32;;;;;;;11.33;10.83;;;21.70;53.30;;;;;;5014197;28;20462;-70
2021/05/04 09:01:58;;;;;;;11.57;10.83;;;21.70;53.80;;;;;;5013681;28;20947;-70
2021/05/04 09:04:32;;;;;;;12.20;11.70;;;21.50;53.40;;;;;;5013930;28;20480;-70
2021/05/04 09:07:19;;;;;;;12.13;11.53;;;22.00;53.60;;;;;;5014180;28;20437;-71
2021/05/04 09:10:18;;;;;;;11.50;10.97;;;21.30;53.10;;;;;;5013872;28;20504;-70
2021/05/04 09:12:50;;;;;;;11.70;11.13;;;21.10;54.40;;;;;;5014016;28;20475;-71
2021/05/04 09:15:56;;;;;;;11.83;11.43;;;21.70;52.70;;;;;;5013973;28;20480;-71
2021/05/04 09:21:32;;;;;;;12.37;11.63;;;20.70;53.30;;;;;;5012180;28;20492;-72
2021/05/04 09:23:59;;;;;;;12.80;12.30;;;20.10;54.00;;;;;;5013043;28;20453;-71
2021/05/04 09:26:32;;;;;;;13.40;12.70;;;20.00;54.70;;;;;;5013696;28;20449;-71
2021/05/04 09:28:58;;;;;;;14.23;13.53;;;20.20;54.70;;;;;;5013414;28;20527;-70
2021/05/04 09:31:27;;;;;;;12.80;11.90;;;20.20;54.70;;;;;;5013465;28;20836;-71
2021/05/04 09:33:54;;;;;;;13.00;12.50;;;20.50;54.00;;;;;;5013478;28;20476;-70
2021/05/04 09:36:41;;;;;;;11.87;11.47;;;21.00;54.30;;;;;;5002054;28;20457;-70
2021/05/04 09:39:09;;;;;;;12.87;12.00;;;21.00;53.50;;;;;;4994130;28;20462;-71
2021/05/04 09:41:35;;;;;;;12.43;12.03;;;21.80;52.70;;;;;;4993746;28;20860;-71
2021/05/04 09:44:01;;;;;;;12.03;11.43;;;21.40;51.30;;;;;;4993557;28;20451;-71
2021/05/04 09:46:47;;;;;;;12.33;11.93;;;21.20;52.20;;;;;;4993439;28;20451;-71
2021/05/04 09:49:30;;;;;;;12.60;11.80;;;21.20;51.70;;;;;;4993616;28;20457;-71
2021/05/04 09:52:25;;;;;;;11.43;11.03;;;21.10;52.40;;;;;;4993582;28;20509;-72
2021/05/04 09:54:52;;;;;;;12.87;12.37;;;21.70;51.70;;;;;;4984277;28;20466;-70
2021/05/04 09:57:41;;;;;;;13.07;12.10;;;21.30;51.40;;;;;;4993639;28;20450;-71
2021/05/04 10:00:10;;;;;;;11.47;10.77;;;21.30;52.50;;;;;;4992796;28;20454;-72
2021/05/04 10:02:38;;;;;;;13.90;13.30;;;21.60;50.80;;;;;;4996148;28;20492;-70
2021/05/04 10:05:06;;;;;;;12.10;11.50;;;21.60;51.40;;;;;;5013082;28;20456;-70
2021/05/04 10:07:33;;;;;;;11.20;10.60;;;20.90;51.50;;;;;;5012709;28;20498;-71
2021/05/04 10:10:01;;;;;;;11.87;11.33;;;21.60;51.30;;;;;;5012227;28;20450;-72
2021/05/04 10:12:29;;;;;;;12.70;12.00;;;22.50;50.90;;;;;;5012538;28;20462;-71
2021/05/04 10:14:58;;;;;;;12.60;12.10;;;23.90;48.80;;;;;;5012494;28;20461;-71
2021/05/04 10:17:25;;;;;;;12.03;11.63;;;23.80;48.50;;;;;;5012545;28;20457;-71
2021/05/04 10:19:52;;;;;;;12.77;12.27;;;24.40;48.30;;;;;;5012548;28;20466;-70
2021/05/04 10:22:19;;;;;;;12.73;12.03;;;24.90;45.20;;;;;;5012529;28;20502;-71
2021/05/04 10:24:48;;;;;;;11.83;11.37;;;24.10;46.30;;;;;;5012603;28;20445;-71
2021/05/04 10:27:19;;;;;;;11.43;10.93;;;23.60;45.60;;;;;;5012677;28;20446;-70
2021/05/04 10:29:49;;;;;;;11.83;11.43;;;22.90;46.90;;;;;;5012614;28;20442;-70
2021/05/04 10:32:15;;;;;;;12.13;11.17;;;22.40;46.80;;;;;;5012415;28;20442;-70
2021/05/04 10:34:41;;;;;;;12.53;11.93;;;22.80;47.10;;;;;;5012478;28;20877;-71
2021/05/04 10:37:33;;;;;;;12.87;12.17;;;22.70;46.50;;;;;;5012338;28;20456;-71
2021/05/04 10:40:00;;;;;;;12.40;11.90;;;22.10;46.80;;;;;;5012115;28;20503;-70
2021/05/04 10:42:34;;;;;;;11.83;11.43;;;22.00;47.50;;;;;;5012105;28;20489;-71
2021/05/04 10:45:08;;;;;;;13.00;12.40;;;21.80;48.50;;;;;;5012127;28;20452;-71
2021/05/04 10:47:48;;;;;;;13.37;12.80;;;22.30;47.90;;;;;;5009858;28;20473;-71
2021/05/04 10:50:17;;;;;;;12.07;11.67;;;22.30;46.60;;;;;;5011755;28;20454;-71
2021/05/04 10:52:59;;;;;;;12.03;11.63;;;22.20;47.80;;;;;;5012128;28;20450;-71
2021/05/04 10:56:07;;;;;;;11.60;11.10;;;22.00;48.60;;;;;;5011942;28;20828;-71
2021/05/04 10:58:49;;;;;;;12.17;11.67;;;21.80;48.30;;;;;;5012238;28;20458;-71
2021/05/04 11:01:19;;;;;;;12.47;11.53;;;22.40;48.70;;;;;;5009688;28;20481;-71
2021/05/04 11:03:52;;;;;;;12.40;11.90;;;22.10;48.10;;;;;;4998314;28;20486;-70
2021/05/04 11:06:41;;;;;;;11.97;11.37;;;22.00;48.30;;;;;;5008415;28;20479;-71
2021/05/04 11:09:18;;;;;;;12.13;11.53;;;22.70;48.40;;;;;;5006452;28;20492;-71
2021/05/04 11:11:49;;;;;;;12.00;11.40;;;22.40;48.60;;;;;;5010920;28;20445;-71
2021/05/04 11:14:30;;;;;;;12.90;12.10;;;22.90;47.30;;;;;;5011861;28;20877;-71
2021/05/04 11:17:08;;;;;;;12.23;11.63;;;22.80;46.60;;;;;;5011697;28;20556;-71
2021/05/04 11:19:36;;;;;;;11.80;11.30;;;22.40;47.30;;;;;;5002675;28;20439;-71
2021/05/04 11:22:11;;;;;;;11.97;11.37;;;21.50;47.60;;;;;;5002859;28;20870;-71
2021/05/04 11:24:43;;;;;;;12.63;12.00;;;21.00;49.20;;;;;;4992446;28;20821;-70
2021/05/04 11:27:29;;;;;;;12.70;12.30;;;20.70;50.60;;;;;;5006255;28;20468;-70
2021/05/04 11:29:59;;;;;;;13.83;13.33;;;21.40;50.50;;;;;;5011609;28;20545;-70
2021/05/04 11:32:27;;;;;;;11.43;10.80;;;21.80;48.30;;;;;;5011359;28;20450;-71
2021/05/04 11:34:56;;;;;;;11.60;11.10;;;21.90;48.50;;;;;;5011453;28;21026;-70
2021/05/04 11:37:44;;;;;;;11.80;11.30;;;21.60;48.90;;;;;;5011611;28;20446;-70
2021/05/04 11:40:19;;;;;;;11.20;10.80;;;21.00;48.80;;;;;;5011457;28;20466;-70
2021/05/04 11:42:47;;;;;;;11.07;10.67;;;20.50;50.20;;;;;;5011323;28;20493;-70
2021/05/04 11:45:16;;;;;;;10.60;10.10;;;20.20;51.00;;;;;;5011011;28;20454;-71
2021/05/04 11:47:44;;;;;;;12.30;11.37;;;20.00;51.60;;;;;;5011070;28;20450;-71
2021/05/04 11:50:14;;;;;;;11.20;10.70;;;19.80;51.90;;;;;;5011015;28;20446;-71
2021/05/04 11:52:42;;;;;;;11.67;11.13;;;19.70;52.10;;;;;;5011432;28;20442;-71
2021/05/04 11:55:18;;;;;;;11.13;10.73;;;19.70;52.50;;;;;;5002606;28;20454;-71
2021/05/04 11:57:46;;;;;;;11.43;10.83;;;20.20;52.80;;;;;;4991638;28;20457;-71
2021/05/04 12:00:17;;;;;;;11.90;11.50;;;20.20;52.50;;;;;;4991559;28;20455;-71
2021/05/04 12:02:45;;;;;;;11.50;11.10;;;20.10;53.10;;;;;;4991309;28;20486;-71
2021/05/04 12:05:14;;;;;;;12.40;11.80;;;20.30;53.50;;;;;;4991328;28;20458;-71
2021/05/04 12:07:43;;;;;;;12.73;12.23;;;20.40;52.90;;;;;;5003582;28;20505;-71
2021/05/04 12:10:26;;;;;;;11.80;11.20;;;20.00;53.00;;;;;;4993667;28;20451;-71
2021/05/04 12:12:55;;;;;;;10.77;10.40;;;19.20;52.60;;;;;;5009396;28;20885;-70
2021/05/04 12:15:23;;;;;;;11.20;10.80;;;18.80;53.80;;;;;;5000645;28;20451;-70
2021/05/04 12:18:12;;;;;;;10.70;10.00;;;18.80;54.40;;;;;;4991317;28;20953;-70
2021/05/04 12:20:41;;;;;;;11.50;10.80;;;18.80;55.00;;;;;;4988315;28;20482;-71
2021/05/04 12:23:09;;;;;;;10.63;10.13;;;18.80;55.60;;;;;;4994766;28;20476;-70
2021/05/04 12:25:41;;;;;;;11.07;10.67;;;19.00;55.90;;;;;;5011013;28;20464;-70
2021/05/04 12:28:12;;;;;;;10.47;9.67;;;18.90;55.80;;;;;;5010965;28;20450;-71
2021/05/04 12:30:38;;;;;;;10.80;10.37;;;18.90;56.30;;;;;;5010713;28;20441;-70
2021/05/04 12:33:05;;;;;;;11.90;11.30;;;18.70;57.10;;;;;;5010843;28;20523;-70
2021/05/04 12:35:33;;;;;;;10.40;9.47;;;18.70;58.30;;;;;;5010738;28;20465;-70
2021/05/04 12:38:15;;;;;;;10.10;9.70;;;18.70;59.20;;;;;;5010616;28;20458;-70
2021/05/04 12:40:55;;;;;;;10.07;9.57;;;18.80;60.00;;;;;;5002075;28;20500;-70
2021/05/04 12:43:26;;;;;;;9.53;9.23;;;19.30;59.70;;;;;;4991192;28;20458;-70